Time;durP1;ratioP1;P1;durP2;ratioP2;P2;SDS_P1;SDS_P2;PMS_P1;PMS_P2;Temp;Humidity;BMP_temperature;BMP_pressure;BME280_temperature;BME280_humidity;BME280_pressure;Samples;Min_cycle;Max_cycle;Signal;HPM_P1;HPM_P2
2022/11/07 00:01:37;;;;;;;6.47;2.22;;;7.80;99.90;;;;;;5058584;28;20693;-66
2022/11/07 00:04:03;;;;;;;;;;;7.80;99.90;;;;;;5054193;28;20091;-66
2022/11/07 00:06:28;;;;;;;4.80;2.35;;;7.80;99.90;;;;;;5053564;28;19932;-65
2022/11/07 00:08:54;;;;;;;;;;;7.80;99.90;;;;;;5045329;28;20036;-66
2022/11/07 00:11:21;;;;;;;9.27;2.40;;;7.80;99.90;;;;;;5042975;28;19929;-66
2022/11/07 00:13:46;;;;;;;;;;;7.80;99.90;;;;;;5047634;28;20039;-66
2022/11/07 00:16:12;;;;;;;7.90;2.85;;;7.80;99.90;;;;;;5054404;28;19923;-66
2022/11/07 00:18:37;;;;;;;;;;;7.80;99.90;;;;;;5042146;28;20132;-65
2022/11/07 00:21:05;;;;;;;7.63;2.25;;;7.90;99.90;;;;;;5042332;28;19924;-65
2022/11/07 00:23:31;;;;;;;3.78;2.28;;;7.90;99.90;;;;;;5031811;28;20463;-65
2022/11/07 00:26:01;;;;;;;;;;;7.90;99.90;;;;;;5042995;28;20056;-67
2022/11/07 00:28:27;;;;;;;7.03;1.73;;;8.00;99.90;;;;;;5040253;28;20441;-65
2022/11/07 00:30:52;;;;;;;;;;;7.90;99.90;;;;;;5039681;28;20040;-67
2022/11/07 00:33:18;;;;;;;2.95;1.42;;;8.00;99.90;;;;;;5037347;28;19921;-66
2022/11/07 00:35:44;;;;;;;;;;;8.00;99.90;;;;;;5044681;28;20045;-65
2022/11/07 00:38:09;;;;;;;3.90;1.42;;;8.00;99.90;;;;;;5036439;28;19920;-66
2022/11/07 00:40:35;;;;;;;;;;;8.10;99.90;;;;;;5041704;28;20048;-66
2022/11/07 00:43:01;;;;;;;5.68;1.40;;;8.10;99.90;;;;;;5038065;28;19964;-66
2022/11/07 00:45:26;;;;;;;5.20;1.48;;;8.10;99.90;;;;;;5045038;28;20072;-66
2022/11/07 00:47:53;;;;;;;4.05;1.23;;;8.10;99.90;;;;;;5036464;28;20122;-66
2022/11/07 00:50:22;;;;;;;1.80;1.13;;;8.20;99.90;;;;;;5026623;28;20489;-66
2022/11/07 00:52:47;;;;;;;5.72;1.40;;;8.20;99.90;;;;;;5034894;28;20686;-66
2022/11/07 00:55:13;;;;;;;;;;;8.30;99.90;;;;;;5042591;28;20599;-66
2022/11/07 00:57:38;;;;;;;5.00;1.85;;;8.30;99.90;;;;;;5035929;28;19921;-66
2022/11/07 01:00:05;;;;;;;2.13;1.23;;;8.30;99.90;;;;;;5037579;28;20520;-66
2022/11/07 01:02:30;;;;;;;5.80;1.98;;;8.30;99.90;;;;;;5034199;28;20037;-65
2022/11/07 01:05:11;;;;;;;;;;;8.30;99.90;;;;;;5041166;28;20543;-66
2022/11/07 01:07:40;;;;;;;3.25;1.33;;;8.40;99.90;;;;;;5026028;28;20000;-66
2022/11/07 01:10:06;;;;;;;3.40;1.45;;;8.40;99.90;;;;;;5041392;28;20033;-65
2022/11/07 01:12:33;;;;;;;4.32;1.20;;;8.40;99.90;;;;;;5038412;28;20041;-66
2022/11/07 01:15:01;;;;;;;3.47;1.45;;;8.40;99.90;;;;;;5037383;28;20048;-66
2022/11/07 01:17:27;;;;;;;3.17;1.25;;;8.40;99.90;;;;;;5034255;28;20052;-66
2022/11/07 01:19:52;;;;;;;;;;;8.40;99.90;;;;;;5038366;28;20762;-66
2022/11/07 01:22:18;;;;;;;2.55;1.20;;;8.40;99.90;;;;;;5031008;28;20056;-65
2022/11/07 01:24:43;;;;;;;;;;;8.40;99.90;;;;;;5037465;28;20086;-65
2022/11/07 01:27:09;;;;;;;4.60;1.17;;;8.50;99.90;;;;;;5037661;28;19924;-65
2022/11/07 01:29:36;;;;;;;3.45;1.42;;;8.50;99.90;;;;;;5034609;28;20493;-65
2022/11/07 01:32:01;;;;;;;6.43;1.73;;;8.50;99.90;;;;;;5036453;28;20041;-66
2022/11/07 01:34:27;;;;;;;;;;;8.50;99.90;;;;;;5037160;28;20095;-66
2022/11/07 01:36:53;;;;;;;4.95;1.10;;;8.50;99.90;;;;;;5035943;28;19967;-65
2022/11/07 01:39:18;;;;;;;;;;;8.50;99.90;;;;;;5044176;28;21105;-65
2022/11/07 01:41:44;;;;;;;4.25;1.85;;;8.50;99.90;;;;;;5027732;28;19921;-66
2022/11/07 01:44:09;;;;;;;2.63;1.10;;;8.50;99.90;;;;;;5039387;28;20038;-65
2022/11/07 01:46:39;;;;;;;;;;;8.50;99.90;;;;;;5034879;28;20044;-66
2022/11/07 01:49:18;;;;;;;4.50;1.15;;;8.50;99.90;;;;;;5032524;28;20273;-66
2022/11/07 01:52:03;;;;;;;6.28;1.55;;;8.50;99.90;;;;;;5035935;28;20025;-66
2022/11/07 01:54:40;;;;;;;6.82;1.48;;;8.50;99.90;;;;;;5035896;28;20047;-66
2022/11/07 01:57:14;;;;;;;3.20;1.10;;;8.60;99.90;;;;;;5032631;28;20041;-66
2022/11/07 01:59:40;;;;;;;3.67;1.25;;;8.60;99.90;;;;;;5034743;28;20129;-66
2022/11/07 02:02:06;;;;;;;5.70;1.60;;;8.60;99.90;;;;;;5030573;28;20036;-65
2022/11/07 02:04:35;;;;;;;2.40;0.98;;;8.60;99.90;;;;;;5039884;28;20067;-66
2022/11/07 02:07:15;;;;;;;1.50;1.05;;;8.60;99.90;;;;;;5027986;28;20041;-65
2022/11/07 02:09:41;;;;;;;3.13;1.30;;;8.60;99.90;;;;;;5042499;28;20813;-65
2022/11/07 02:12:07;;;;;;;2.08;1.30;;;8.60;99.90;;;;;;5031505;28;20045;-67
2022/11/07 02:14:33;;;;;;;3.78;1.30;;;8.60;99.90;;;;;;5034041;28;20398;-65
2022/11/07 02:16:59;;;;;;;;;;;8.60;99.90;;;;;;5032388;28;20045;-66
2022/11/07 02:19:30;;;;;;;4.05;1.30;;;8.60;99.90;;;;;;5040624;28;19916;-65
2022/11/07 02:22:22;;;;;;;6.70;1.00;;;8.60;99.90;;;;;;5029084;28;20045;-65
2022/11/07 02:24:52;;;;;;;1.40;1.20;;;8.60;99.90;;;;;;5018668;28;20164;-65
2022/11/07 02:27:21;;;;;;;4.80;1.80;;;8.70;99.90;;;;;;5032841;28;20142;-65
2022/11/07 02:29:52;;;;;;;3.53;1.33;;;8.70;99.90;;;;;;5036177;28;20106;-67
2022/11/07 02:32:17;;;;;;;5.13;1.27;;;8.70;99.90;;;;;;5036958;28;20045;-66
2022/11/07 02:34:43;;;;;;;;;;;8.70;99.90;;;;;;5035161;28;20041;-66
2022/11/07 02:37:31;;;;;;;5.10;1.45;;;8.70;99.90;;;;;;5030853;28;19916;-65
2022/11/07 02:39:59;;;;;;;6.30;1.50;;;8.70;99.90;;;;;;5039336;28;20075;-66
2022/11/07 02:42:42;;;;;;;4.45;1.20;;;8.80;99.90;;;;;;5035993;28;20049;-65
2022/11/07 02:45:32;;;;;;;6.63;1.52;;;8.70;99.90;;;;;;5031365;28;20045;-66
2022/11/07 02:47:58;;;;;;;7.15;1.20;;;8.70;99.90;;;;;;5031659;28;20048;-65
2022/11/07 02:50:24;;;;;;;;;;;8.60;99.90;;;;;;5027374;28;20601;-66
2022/11/07 02:52:49;;;;;;;7.07;1.40;;;8.60;99.90;;;;;;5033600;28;20058;-66
2022/11/07 02:55:15;;;;;;;;;;;8.60;99.90;;;;;;5031417;28;20087;-65
2022/11/07 02:57:41;;;;;;;6.70;1.23;;;8.60;99.90;;;;;;5027156;28;19928;-66
2022/11/07 03:00:08;;;;;;;;;;;8.60;99.90;;;;;;5041750;28;20043;-67
2022/11/07 03:02:33;;;;;;;3.85;1.52;;;8.70;99.90;;;;;;5027606;28;19940;-66
2022/11/07 03:04:59;;;;;;;;;;;8.70;99.90;;;;;;5032297;28;20497;-66
2022/11/07 03:07:25;;;;;;;8.02;1.52;;;8.80;99.90;;;;;;5033933;28;20023;-66
2022/11/07 03:09:50;;;;;;;5.25;1.52;;;8.70;99.90;;;;;;5042156;28;20556;-65
2022/11/07 03:12:16;;;;;;;5.88;1.52;;;8.80;99.90;;;;;;5039736;28;20037;-65
2022/11/07 03:14:41;;;;;;;;;;;8.80;99.90;;;;;;5034474;28;20037;-66
2022/11/07 03:17:07;;;;;;;4.47;1.40;;;8.80;99.90;;;;;;5031604;28;20000;-68
2022/11/07 03:19:33;;;;;;;11.25;1.40;;;8.90;99.90;;;;;;5034671;28;20646;-65
2022/11/07 03:21:59;;;;;;;;;;;8.90;99.90;;;;;;5030313;28;20041;-66
2022/11/07 03:24:24;;;;;;;6.75;1.40;;;8.90;99.90;;;;;;5032815;28;20305;-66
2022/11/07 03:26:50;;;;;;;;;;;8.90;99.90;;;;;;5033688;28;20120;-65
2022/11/07 03:29:16;;;;;;;5.30;1.40;;;8.90;99.90;;;;;;5031561;28;19917;-66
2022/11/07 03:31:42;;;;;;;4.07;1.67;;;8.90;99.90;;;;;;5032987;28;20038;-67
2022/11/07 03:34:07;;;;;;;7.63;1.35;;;8.90;99.90;;;;;;5031788;28;20048;-67
2022/11/07 03:36:33;;;;;;;;;;;8.90;99.90;;;;;;5032454;28;20036;-66
2022/11/07 03:38:59;;;;;;;5.88;1.58;;;9.00;99.90;;;;;;5041492;28;19920;-65
2022/11/07 03:41:25;;;;;;;10.38;1.48;;;9.00;99.90;;;;;;5043026;28;20072;-67
2022/11/07 03:43:50;;;;;;;;;;;8.90;99.90;;;;;;5041879;28;20072;-66
2022/11/07 03:46:16;;;;;;;3.90;1.08;;;8.90;99.90;;;;;;5029643;28;19931;-66
2022/11/07 03:48:42;;;;;;;;;;;8.90;99.90;;;;;;5035797;28;20040;-67
2022/11/07 03:51:08;;;;;;;8.40;1.38;;;8.90;99.90;;;;;;5028290;28;19921;-66
2022/11/07 03:53:35;;;;;;;6.68;1.70;;;8.90;99.90;;;;;;5037418;28;20117;-67
2022/11/07 03:56:07;;;;;;;5.70;1.75;;;8.90;99.90;;;;;;5032924;28;20056;-66
2022/11/07 03:58:32;;;;;;;8.23;1.38;;;8.90;99.90;;;;;;5035808;28;20099;-67
2022/11/07 04:00:58;;;;;;;;;;;8.90;99.90;;;;;;5030075;28;20041;-67
2022/11/07 04:03:24;;;;;;;10.35;1.88;;;8.90;99.90;;;;;;5032729;28;19920;-66
2022/11/07 04:05:49;;;;;;;5.30;1.40;;;8.90;99.90;;;;;;5032016;28;20046;-66
2022/11/07 04:08:15;;;;;;;10.05;1.65;;;8.90;99.90;;;;;;5040221;28;20036;-66
2022/11/07 04:10:40;;;;;;;;;;;9.00;99.90;;;;;;5043341;28;20048;-67
2022/11/07 04:18:37;;;;;;;6.85;1.65;;;9.00;99.90;;;;;;5040161;28;20052;-67
2022/11/07 04:21:04;;;;;;;;;;;9.10;99.90;;;;;;5032078;28;20094;-66
2022/11/07 04:23:29;;;;;;;9.30;1.90;;;9.10;99.90;;;;;;5041682;28;20054;-67
2022/11/07 04:28:39;;;;;;;3.45;1.15;;;9.20;99.90;;;;;;5039377;28;19921;-66
2022/11/07 04:31:05;;;;;;;;;;;9.20;99.90;;;;;;5036011;28;20033;-65
2022/11/07 04:33:30;;;;;;;6.97;1.30;;;9.20;99.90;;;;;;5040188;28;19924;-66
2022/11/07 04:35:56;;;;;;;;;;;9.20;99.90;;;;;;5043084;28;20045;-66
2022/11/07 04:38:21;;;;;;;5.72;1.42;;;9.20;99.90;;;;;;5037223;28;19925;-65
2022/11/07 04:40:57;;;;;;;;;;;9.10;99.90;;;;;;5046952;28;20076;-66
2022/11/07 04:43:27;;;;;;;13.98;1.42;;;9.10;99.90;;;;;;5036706;28;19924;-65
2022/11/07 04:45:53;;;;;;;8.50;1.75;;;9.10;99.90;;;;;;5031143;28;20685;-67
2022/11/07 04:48:18;;;;;;;;;;;9.20;99.90;;;;;;5037672;28;20083;-67
2022/11/07 04:50:44;;;;;;;6.60;1.38;;;9.10;99.90;;;;;;5033965;28;19999;-66
2022/11/07 04:53:11;;;;;;;;;;;9.10;99.90;;;;;;5037607;28;20037;-66
2022/11/07 04:55:37;;;;;;;5.35;1.35;;;9.20;99.90;;;;;;5045671;28;19940;-66
2022/11/07 04:58:02;;;;;;;;;;;9.10;99.90;;;;;;5037035;28;20049;-65
2022/11/07 05:00:28;;;;;;;8.30;2.05;;;9.10;99.90;;;;;;5043643;28;19928;-66
2022/11/07 05:02:54;;;;;;;4.55;1.33;;;9.10;99.90;;;;;;5036384;28;20785;-68
2022/11/07 05:05:19;;;;;;;;;;;9.10;99.90;;;;;;5045407;28;20143;-66
2022/11/07 05:07:46;;;;;;;4.45;1.48;;;9.10;99.90;;;;;;5037426;28;19921;-66
2022/11/07 05:10:19;;;;;;;7.25;1.65;;;9.20;99.90;;;;;;5039894;28;20037;-66
2022/11/07 05:12:45;;;;;;;9.02;1.40;;;9.20;99.90;;;;;;5039246;28;20045;-67
2022/11/07 05:15:10;;;;;;;;;;;9.20;99.90;;;;;;5044872;28;20526;-66
2022/11/07 05:17:36;;;;;;;7.45;2.25;;;9.20;99.90;;;;;;5037342;28;20325;-65
2022/11/07 05:20:02;;;;;;;;;;;9.20;99.90;;;;;;5042411;28;20052;-65
2022/11/07 05:25:12;;;;;;;4.75;1.45;;;9.20;99.90;;;;;;5030268;28;20037;-67
2022/11/07 05:27:37;;;;;;;;;;;9.20;99.90;;;;;;5035196;28;20049;-67
2022/11/07 05:30:04;;;;;;;12.20;2.00;;;9.20;99.90;;;;;;5018107;28;20001;-67
2022/11/07 05:32:33;;;;;;;9.82;1.85;;;9.10;99.90;;;;;;5037486;28;20713;-65
2022/11/07 05:34:59;;;;;;;7.97;1.73;;;9.10;99.90;;;;;;5039112;28;20045;-65
2022/11/07 05:37:24;;;;;;;;;;;9.20;99.90;;;;;;5037932;28;20041;-65
2022/11/07 05:39:50;;;;;;;5.07;1.55;;;9.20;99.90;;;;;;5038766;28;20327;-65
2022/11/07 05:42:16;;;;;;;;;;;9.10;99.90;;;;;;5040884;28;20037;-65
2022/11/07 05:44:41;;;;;;;8.10;1.65;;;9.20;99.90;;;;;;5041741;28;20035;-65
2022/11/07 05:47:07;;;;;;;;;;;9.20;99.90;;;;;;5029332;28;20590;-66
2022/11/07 05:49:32;;;;;;;8.05;1.55;;;9.10;99.90;;;;;;5034192;28;20556;-66
2022/11/07 05:51:58;;;;;;;12.18;1.65;;;9.10;99.90;;;;;;5036976;28;20037;-66
2022/11/07 05:54:26;;;;;;;6.70;1.48;;;9.10;99.90;;;;;;5031586;28;20049;-66
2022/11/07 05:56:55;;;;;;;6.53;1.55;;;9.10;99.90;;;;;;5045929;28;20074;-65
2022/11/07 05:59:21;;;;;;;4.22;1.35;;;9.10;99.90;;;;;;5037591;28;20115;-63
2022/11/07 06:01:46;;;;;;;;;;;9.10;99.90;;;;;;5034960;28;20489;-65
2022/11/07 06:04:12;;;;;;;5.47;1.80;;;9.10;99.90;;;;;;5040582;28;19920;-66
2022/11/07 06:06:38;;;;;;;7.45;1.60;;;9.10;99.90;;;;;;5016228;28;20472;-66
2022/11/07 06:09:03;;;;;;;;;;;9.10;99.90;;;;;;5039480;28;20062;-65
2022/11/07 06:11:30;;;;;;;8.82;1.90;;;9.10;99.90;;;;;;5036768;28;19913;-65
2022/11/07 06:13:56;;;;;;;8.27;2.40;;;9.10;99.90;;;;;;5033730;28;20041;-66
2022/11/07 06:16:22;;;;;;;;;;;9.10;99.90;;;;;;5030198;28;20056;-65
2022/11/07 06:18:48;;;;;;;11.18;2.20;;;9.10;99.90;;;;;;5040110;28;19978;-65
2022/11/07 06:21:14;;;;;;;12.85;2.33;;;9.20;99.90;;;;;;5033483;28;20504;-64
2022/11/07 06:23:40;;;;;;;6.65;1.90;;;9.20;99.90;;;;;;5035397;28;20119;-64
2022/11/07 06:26:09;;;;;;;;;;;9.20;99.90;;;;;;5033012;28;20136;-64
2022/11/07 06:28:35;;;;;;;7.60;1.60;;;9.20;99.90;;;;;;5032576;28;19986;-64
2022/11/07 06:31:01;;;;;;;;;;;9.20;99.90;;;;;;5032052;28;20489;-65
2022/11/07 06:33:28;;;;;;;14.43;1.80;;;9.20;99.90;;;;;;5043265;28;19982;-66
2022/11/07 06:35:55;;;;;;;12.07;1.90;;;9.20;99.90;;;;;;5043821;28;20102;-66
2022/11/07 06:38:21;;;;;;;8.25;1.30;;;9.20;99.90;;;;;;5040339;28;20116;-65
2022/11/07 06:40:47;;;;;;;6.13;1.98;;;9.20;99.90;;;;;;5076404;28;20037;-67
2022/11/07 06:43:14;;;;;;;8.75;1.80;;;9.20;99.90;;;;;;5041350;28;20045;-65
2022/11/07 06:45:41;;;;;;;10.15;1.88;;;9.20;99.90;;;;;;5040491;28;20037;-66
2022/11/07 06:48:07;;;;;;;11.98;2.53;;;9.20;99.90;;;;;;5038549;28;20564;-67
2022/11/07 06:50:34;;;;;;;8.27;1.58;;;9.20;99.90;;;;;;5041097;28;20384;-66
2022/11/07 06:53:02;;;;;;;12.85;1.90;;;9.30;99.90;;;;;;5042983;28;20055;-66
2022/11/07 06:55:28;;;;;;;8.80;1.70;;;9.30;99.90;;;;;;5040387;28;20037;-65
2022/11/07 06:57:56;;;;;;;;;;;9.40;99.90;;;;;;5040482;28;20125;-67
2022/11/07 07:00:22;;;;;;;9.70;1.92;;;9.40;99.90;;;;;;5041842;28;19924;-71
2022/11/07 07:02:47;;;;;;;;;;;9.40;99.90;;;;;;5028773;28;20195;-67
2022/11/07 07:05:13;;;;;;;8.82;2.00;;;9.50;99.90;;;;;;5032095;28;19956;-67
2022/11/07 07:07:38;;;;;;;7.90;1.77;;;9.50;99.90;;;;;;5036427;28;20911;-67
2022/11/07 07:10:04;;;;;;;;;;;9.50;99.90;;;;;;5038567;28;20037;-67
2022/11/07 07:12:30;;;;;;;7.10;1.50;;;9.50;99.90;;;;;;5032254;28;19920;-66
2022/11/07 07:14:55;;;;;;;;;;;9.50;99.90;;;;;;5032080;28;20090;-68
2022/11/07 07:17:21;;;;;;;9.25;1.40;;;9.50;99.90;;;;;;5030905;28;19925;-67
2022/11/07 07:19:47;;;;;;;;;;;9.50;99.90;;;;;;5034807;28;20398;-67
2022/11/07 07:22:13;;;;;;;5.57;1.38;;;9.50;99.90;;;;;;5028181;28;19921;-67
2022/11/07 07:24:38;;;;;;;9.48;2.17;;;9.50;99.90;;;;;;5035259;28;20124;-67
2022/11/07 07:27:04;;;;;;;;;;;9.60;99.90;;;;;;5038010;28;20124;-65
2022/11/07 07:29:29;;;;;;;9.80;2.00;;;9.60;99.90;;;;;;5039288;28;19917;-65
2022/11/07 07:31:55;;;;;;;;;;;9.70;99.90;;;;;;5034536;28;20478;-65
2022/11/07 07:34:21;;;;;;;10.65;1.65;;;9.70;99.90;;;;;;5036005;28;19979;-65
2022/11/07 07:36:46;;;;;;;;;;;9.70;99.90;;;;;;5032598;28;20065;-66
2022/11/07 07:39:12;;;;;;;11.35;1.77;;;9.80;99.90;;;;;;5043164;28;20542;-66
2022/11/07 07:41:37;;;;;;;;;;;9.80;99.90;;;;;;5032527;28;20029;-66
2022/11/07 07:44:03;;;;;;;11.30;1.40;;;9.80;99.90;;;;;;5042102;28;19958;-66
2022/11/07 07:46:29;;;;;;;8.55;1.73;;;9.80;99.90;;;;;;5028236;28;20460;-66
2022/11/07 07:48:55;;;;;;;12.27;1.83;;;9.80;99.90;;;;;;5043961;28;20052;-66
2022/11/07 07:51:20;;;;;;;;;;;9.80;99.90;;;;;;5040574;28;20087;-67
2022/11/07 07:53:46;;;;;;;6.40;1.25;;;9.90;99.90;;;;;;5035046;28;19917;-66
2022/11/07 07:56:13;;;;;;;;;;;9.90;99.90;;;;;;5040332;28;20041;-65
2022/11/07 07:58:39;;;;;;;6.55;1.30;;;10.00;99.90;;;;;;5049699;28;19921;-66
2022/11/07 08:01:09;;;;;;;;;;;10.10;99.90;;;;;;5028020;28;20063;-67
2022/11/07 08:03:35;;;;;;;8.40;1.65;;;10.10;99.90;;;;;;5041055;28;19921;-66
2022/11/07 08:06:00;;;;;;;;;;;10.10;99.90;;;;;;5032296;28;20040;-67
2022/11/07 08:08:26;;;;;;;8.77;1.55;;;10.20;99.90;;;;;;5037594;28;20308;-66
2022/11/07 08:10:53;;;;;;;;;;;10.20;99.90;;;;;;5043157;28;20045;-66
2022/11/07 08:13:23;;;;;;;10.32;1.67;;;10.10;99.90;;;;;;5038752;28;19921;-67
2022/11/07 08:15:50;;;;;;;11.40;1.75;;;10.20;99.90;;;;;;5040170;28;20102;-66
2022/11/07 08:18:18;;;;;;;7.15;1.30;;;10.20;99.90;;;;;;5042555;28;20044;-66
2022/11/07 08:20:44;;;;;;;13.50;1.92;;;10.30;99.90;;;;;;5040127;28;20041;-66
2022/11/07 08:23:10;;;;;;;8.20;1.52;;;10.30;99.90;;;;;;5032169;28;20039;-67
2022/11/07 08:25:37;;;;;;;8.85;1.30;;;10.40;99.90;;;;;;5044736;28;20650;-66
2022/11/07 08:28:04;;;;;;;8.25;1.70;;;10.50;99.90;;;;;;5038706;28;20041;-67
2022/11/07 08:30:30;;;;;;;10.35;1.15;;;10.60;99.90;;;;;;5031614;28;20047;-66
2022/11/07 08:33:01;;;;;;;12.68;1.25;;;10.70;99.90;;;;;;5040927;28;20037;-66
2022/11/07 08:35:28;;;;;;;8.10;1.20;;;10.70;99.90;;;;;;5036475;28;20083;-66
2022/11/07 08:37:54;;;;;;;6.47;1.52;;;10.70;99.90;;;;;;5036547;28;20040;-66
2022/11/07 08:40:20;;;;;;;10.07;2.08;;;10.80;99.90;;;;;;5040139;28;20078;-66
2022/11/07 08:42:46;;;;;;;;;;;10.80;99.90;;;;;;5044491;28;20044;-66
2022/11/07 08:45:12;;;;;;;8.05;1.38;;;10.80;99.90;;;;;;5032580;28;19927;-67
2022/11/07 08:47:37;;;;;;;;;;;10.90;99.90;;;;;;5042348;28;20049;-66
2022/11/07 08:50:04;;;;;;;2.47;1.10;;;10.90;99.90;;;;;;5032868;28;19924;-67
2022/11/07 08:52:29;;;;;;;6.35;1.13;;;11.00;99.90;;;;;;5034126;28;20041;-66
2022/11/07 08:54:55;;;;;;;;;;;10.90;99.90;;;;;;5036091;28;20056;-67
2022/11/07 08:57:21;;;;;;;8.23;2.13;;;10.90;99.90;;;;;;5029521;28;20455;-64
2022/11/07 08:59:46;;;;;;;6.38;1.20;;;10.90;99.90;;;;;;5043632;28;20077;-64
2022/11/07 09:02:12;;;;;;;;;;;10.90;99.90;;;;;;5032225;28;20041;-65
2022/11/07 09:04:38;;;;;;;8.43;2.08;;;10.90;99.90;;;;;;5034195;28;19923;-65
2022/11/07 09:07:03;;;;;;;7.10;1.40;;;10.90;99.90;;;;;;5034373;28;20163;-65
2022/11/07 09:09:29;;;;;;;;;;;10.90;99.90;;;;;;5036655;28;20033;-66
2022/11/07 09:11:55;;;;;;;6.63;1.27;;;10.90;99.90;;;;;;5043450;28;19991;-65
2022/11/07 09:14:20;;;;;;;;;;;10.80;99.90;;;;;;5033824;28;20038;-64
2022/11/07 09:16:46;;;;;;;7.75;1.42;;;10.70;99.90;;;;;;5033852;28;19925;-64
2022/11/07 09:19:11;;;;;;;;;;;10.70;99.90;;;;;;5034764;28;20029;-64
2022/11/07 09:21:37;;;;;;;4.82;1.08;;;10.60;99.90;;;;;;5029725;28;19927;-66
2022/11/07 09:24:03;;;;;;;;;;;10.50;99.90;;;;;;5039243;28;20033;-65
2022/11/07 09:26:29;;;;;;;12.48;2.60;;;10.40;99.90;;;;;;5030795;28;20033;-66
2022/11/07 09:28:54;;;;;;;;;;;10.30;99.90;;;;;;5035664;28;20095;-65
2022/11/07 09:31:21;;;;;;;6.15;1.50;;;10.30;99.90;;;;;;5029768;28;19913;-65
2022/11/07 09:33:46;;;;;;;11.60;1.83;;;10.30;99.90;;;;;;5035015;28;20098;-65
2022/11/07 09:36:12;;;;;;;;;;;10.30;99.90;;;;;;5039260;28;20199;-65
2022/11/07 09:38:38;;;;;;;9.68;1.48;;;10.30;99.90;;;;;;5040534;28;19999;-65
2022/11/07 09:41:15;;;;;;;;;;;10.20;99.90;;;;;;5041425;28;20044;-66
2022/11/07 09:43:49;;;;;;;5.72;1.20;;;10.30;99.90;;;;;;5035024;28;19920;-66
2022/11/07 09:46:34;;;;;;;8.88;1.38;;;10.30;99.90;;;;;;5029620;28;20075;-65
2022/11/07 09:49:14;;;;;;;8.02;1.35;;;10.40;99.90;;;;;;5032146;28;20045;-65
2022/11/07 09:51:44;;;;;;;5.57;1.27;;;10.40;99.90;;;;;;5029671;28;20049;-66
2022/11/07 09:54:20;;;;;;;7.00;1.25;;;10.50;99.90;;;;;;5035159;28;20052;-63
2022/11/07 09:56:46;;;;;;;5.07;1.52;;;10.60;99.90;;;;;;5041449;28;20107;-62
2022/11/07 09:59:16;;;;;;;;;;;10.70;99.90;;;;;;5038441;28;20124;-65
2022/11/07 10:01:41;;;;;;;10.50;1.13;;;10.70;99.90;;;;;;5029965;28;20010;-67
2022/11/07 10:04:12;;;;;;;;;;;10.70;99.90;;;;;;5036280;28;20079;-67
2022/11/07 10:06:49;;;;;;;6.55;1.40;;;10.70;99.90;;;;;;5043760;28;19929;-67
2022/11/07 10:09:39;;;;;;;7.05;1.33;;;10.70;99.90;;;;;;5038522;28;20048;-67
2022/11/07 10:12:19;;;;;;;5.60;1.17;;;10.70;99.90;;;;;;5035710;28;20513;-67
2022/11/07 10:15:05;;;;;;;5.28;1.02;;;10.90;99.90;;;;;;5032231;28;20066;-67
2022/11/07 10:17:34;;;;;;;7.93;1.20;;;11.00;99.90;;;;;;5035219;28;20136;-67
2022/11/07 10:20:33;;;;;;;6.55;1.23;;;11.20;99.90;;;;;;5032953;28;20106;-67
2022/11/07 10:23:37;;;;;;;6.20;0.90;;;11.20;99.90;;;;;;5030645;28;20044;-67
2022/11/07 10:26:09;;;;;;;8.98;1.25;;;11.20;99.90;;;;;;5031851;28;20036;-67
2022/11/07 10:28:48;;;;;;;7.00;1.58;;;11.20;99.90;;;;;;5039296;28;20041;-66
2022/11/07 10:31:15;;;;;;;8.00;1.20;;;11.10;99.90;;;;;;5026829;28;20041;-67
2022/11/07 10:33:55;;;;;;;8.60;1.48;;;11.10;99.90;;;;;;5035789;28;20567;-67
2022/11/07 10:36:29;;;;;;;6.80;1.38;;;11.10;99.90;;;;;;5030168;28;20037;-66
2022/11/07 10:38:55;;;;;;;10.27;1.75;;;11.10;99.90;;;;;;5037387;28;20048;-67
2022/11/07 10:41:21;;;;;;;;;;;11.10;99.90;;;;;;5044717;28;20033;-66
2022/11/07 10:43:57;;;;;;;10.05;1.27;;;11.20;99.90;;;;;;5035840;28;20007;-67
2022/11/07 10:46:39;;;;;;;10.40;1.77;;;11.20;99.90;;;;;;5037403;28;20049;-66
2022/11/07 10:49:23;;;;;;;4.78;1.02;;;11.30;99.90;;;;;;5035139;28;20110;-68
2022/11/07 10:51:49;;;;;;;7.07;1.25;;;11.40;99.90;;;;;;5035099;28;20053;-68
2022/11/07 10:54:29;;;;;;;7.45;1.50;;;11.40;99.90;;;;;;5040847;28;20122;-67
2022/11/07 10:57:15;;;;;;;6.50;1.13;;;11.30;99.90;;;;;;5040235;28;20071;-68
2022/11/07 10:59:50;;;;;;;7.13;1.33;;;11.30;99.90;;;;;;5021244;28;20072;-65
2022/11/07 11:02:19;;;;;;;13.68;1.45;;;11.20;99.90;;;;;;5034471;28;20131;-67
2022/11/07 11:04:49;;;;;;;6.15;1.27;;;11.10;99.90;;;;;;5038940;28;20049;-67
2022/11/07 11:07:14;;;;;;;9.63;1.67;;;11.20;99.90;;;;;;5034367;28;20451;-68
2022/11/07 11:09:50;;;;;;;;;;;11.10;99.90;;;;;;5036611;28;20042;-66
2022/11/07 11:12:23;;;;;;;7.75;1.40;;;11.20;99.90;;;;;;5029778;28;19944;-65
2022/11/07 11:14:49;;;;;;;3.80;0.80;;;11.10;99.90;;;;;;5033056;28;20039;-65
2022/11/07 11:17:24;;;;;;;;;;;11.10;99.90;;;;;;5032920;28;20041;-64
2022/11/07 11:19:52;;;;;;;9.98;1.42;;;11.10;99.90;;;;;;5031292;28;20397;-64
2022/11/07 11:22:21;;;;;;;4.97;1.52;;;11.10;99.90;;;;;;5029502;28;20041;-66
2022/11/07 11:25:02;;;;;;;2.72;0.95;;;11.10;99.90;;;;;;5036782;28;20037;-65
2022/11/07 11:27:31;;;;;;;7.53;1.67;;;11.10;99.90;;;;;;5035560;28;20079;-70
2022/11/07 11:30:17;;;;;;;5.35;1.02;;;11.20;99.90;;;;;;5033350;28;20124;-66
2022/11/07 11:33:02;;;;;;;8.18;1.40;;;11.20;99.90;;;;;;5045596;28;20041;-66
2022/11/07 11:35:37;;;;;;;3.78;0.80;;;11.10;99.90;;;;;;5053830;28;20036;-66
2022/11/07 11:38:44;;;;;;;7.03;1.15;;;11.10;99.90;;;;;;5061581;28;20064;-66
2022/11/07 11:41:21;;;;;;;7.35;1.15;;;11.00;99.90;;;;;;5056385;28;20040;-67
2022/11/07 11:43:57;;;;;;;3.22;0.75;;;11.10;99.90;;;;;;5060853;28;20083;-67
2022/11/07 11:46:35;;;;;;;13.18;3.28;;;11.00;99.90;;;;;;5058361;28;20115;-67
2022/11/07 11:49:26;;;;;;;4.45;1.02;;;11.00;99.90;;;;;;5060873;28;20051;-67
2022/11/07 11:52:05;;;;;;;7.28;1.10;;;11.00;99.90;;;;;;5063048;28;20048;-67
2022/11/07 11:54:31;;;;;;;7.20;1.38;;;11.00;99.90;;;;;;5061846;28;20497;-67
2022/11/07 11:57:17;;;;;;;;;;;11.00;99.90;;;;;;5054800;28;20048;-66
2022/11/07 11:59:59;;;;;;;8.63;1.23;;;11.00;99.90;;;;;;5070812;28;19965;-67
2022/11/07 12:02:53;;;;;;;4.35;1.00;;;11.00;99.90;;;;;;5056662;28;20225;-65
2022/11/07 12:05:43;;;;;;;4.40;1.13;;;11.00;99.90;;;;;;5060029;28;20041;-67
2022/11/07 12:08:46;;;;;;;8.48;1.67;;;11.00;99.90;;;;;;5054935;28;20041;-66
2022/11/07 12:11:33;;;;;;;7.00;1.13;;;11.10;99.90;;;;;;5052936;28;20603;-66
2022/11/07 12:14:17;;;;;;;;;;;11.10;99.90;;;;;;5058592;28;20114;-67
2022/11/07 12:17:05;;;;;;;5.47;1.40;;;11.10;99.90;;;;;;5066356;28;20006;-66
2022/11/07 12:19:42;;;;;;;7.03;1.88;;;11.10;99.90;;;;;;5059384;28;20033;-67
2022/11/07 12:22:19;;;;;;;8.85;1.38;;;11.10;99.90;;;;;;5061688;28;20029;-66
2022/11/07 12:24:46;;;;;;;;;;;11.10;99.90;;;;;;5063604;28;20051;-67
2022/11/07 12:27:40;;;;;;;10.07;1.50;;;11.20;99.90;;;;;;5064460;28;19963;-67
2022/11/07 12:30:14;;;;;;;5.18;1.15;;;11.30;99.90;;;;;;5067565;28;20324;-67
2022/11/07 12:33:09;;;;;;;4.47;1.05;;;11.30;99.90;;;;;;5065618;28;20705;-67
2022/11/07 12:35:55;;;;;;;6.65;1.10;;;11.30;99.90;;;;;;5062916;28;20129;-66
2022/11/07 12:38:58;;;;;;;2.65;1.00;;;11.30;99.90;;;;;;5064865;28;20124;-67
2022/11/07 12:41:54;;;;;;;11.30;1.33;;;11.30;99.90;;;;;;5064734;28;20611;-67
2022/11/07 12:44:44;;;;;;;10.68;1.58;;;11.30;99.90;;;;;;5067336;28;20032;-66
2022/11/07 12:47:37;;;;;;;5.25;0.95;;;11.30;99.90;;;;;;5058869;28;20043;-67
2022/11/07 12:50:25;;;;;;;3.17;0.75;;;11.40;99.90;;;;;;5050305;28;20112;-66
2022/11/07 12:53:26;;;;;;;3.38;1.30;;;11.50;99.90;;;;;;5064193;28;20113;-66
2022/11/07 12:56:08;;;;;;;6.22;1.73;;;11.50;99.90;;;;;;5063766;28;20044;-67
2022/11/07 12:58:37;;;;;;;5.28;1.10;;;11.60;99.90;;;;;;5065564;28;20561;-66
2022/11/07 13:01:04;;;;;;;3.00;0.95;;;11.50;99.90;;;;;;5064268;28;20041;-67
2022/11/07 13:03:59;;;;;;;5.40;1.00;;;11.50;99.90;;;;;;5059742;28;20056;-66
2022/11/07 13:06:34;;;;;;;2.75;1.00;;;11.50;99.90;;;;;;5059744;28;20063;-67
2022/11/07 13:09:27;;;;;;;4.45;1.80;;;11.60;99.90;;;;;;5064689;28;20044;-66
2022/11/07 13:12:09;;;;;;;7.10;1.30;;;11.50;99.90;;;;;;5064065;28;20043;-67
2022/11/07 13:14:41;;;;;;;3.13;1.23;;;11.50;99.90;;;;;;5059335;28;20087;-67
2022/11/07 13:17:09;;;;;;;2.75;0.90;;;11.50;99.90;;;;;;5058223;28;20120;-67
2022/11/07 13:19:44;;;;;;;4.30;0.80;;;11.50;99.90;;;;;;5067333;28;20049;-66
2022/11/07 13:22:12;;;;;;;4.88;1.05;;;11.50;99.90;;;;;;5057665;28;20104;-66
2022/11/07 13:24:53;;;;;;;6.60;0.95;;;11.50;99.90;;;;;;5058005;28;20043;-67
2022/11/07 13:27:22;;;;;;;3.47;0.90;;;11.50;99.90;;;;;;5060056;28;20051;-66
2022/11/07 13:29:47;;;;;;;5.78;0.98;;;11.50;99.90;;;;;;5058826;28;20044;-67
2022/11/07 13:32:14;;;;;;;;;;;11.40;99.90;;;;;;5055630;28;20119;-67
2022/11/07 13:34:59;;;;;;;5.18;1.25;;;11.50;99.90;;;;;;5066176;28;20395;-66
2022/11/07 13:37:39;;;;;;;5.28;1.30;;;11.50;99.90;;;;;;5059781;28;20463;-67
2022/11/07 13:40:20;;;;;;;4.20;1.00;;;11.50;99.90;;;;;;5065351;28;20044;-66